createdAt,value
2019-04-29T00:00:46.046Z,6.01
2019-04-29T00:01:46.045Z,6.07
2019-04-29T00:02:46.033Z,5.99
2019-04-29T00:03:46.028Z,5.93
2019-04-29T00:04:46.022Z,5.91
2019-04-29T00:05:46.015Z,5.90
2019-04-29T00:06:46.009Z,5.86
2019-04-29T00:07:46.004Z,5.87
2019-04-29T00:08:46.006Z,5.87
2019-04-29T00:09:45.992Z,5.83
2019-04-29T00:10:45.983Z,5.83
2019-04-29T00:11:45.980Z,5.82
2019-04-29T00:12:45.970Z,5.82
2019-04-29T00:13:45.967Z,5.86
2019-04-29T00:14:45.959Z,5.83
2019-04-29T00:15:45.955Z,5.86
2019-04-29T00:16:45.945Z,5.82
2019-04-29T00:17:45.939Z,5.76
2019-04-29T00:18:45.933Z,5.82
2019-04-29T00:19:45.927Z,5.80
2019-04-29T00:20:45.922Z,5.82
2019-04-29T00:21:45.915Z,5.76
2019-04-29T00:22:45.909Z,5.80
2019-04-29T00:23:45.901Z,5.76
2019-04-29T00:24:45.894Z,5.80
2019-04-29T00:25:45.888Z,5.84
2019-04-29T00:26:45.882Z,5.83
2019-04-29T00:27:45.874Z,5.76
2019-04-29T00:28:45.868Z,5.83
2019-04-29T00:29:45.865Z,5.83
2019-04-29T00:30:45.857Z,5.83
2019-04-29T00:31:45.850Z,5.84
2019-04-29T00:32:45.843Z,5.82
2019-04-29T00:33:45.835Z,5.90
2019-04-29T00:34:45.829Z,5.91
2019-04-29T00:35:45.825Z,5.82
2019-04-29T00:36:45.818Z,5.97
2019-04-29T00:37:45.811Z,5.84
2019-04-29T00:38:45.811Z,5.80
2019-04-29T00:39:45.799Z,5.90
2019-04-29T00:40:45.791Z,5.83
2019-04-29T00:41:45.784Z,5.84
2019-04-29T00:42:45.781Z,5.90
2019-04-29T00:43:45.780Z,5.93
2019-04-29T00:44:45.764Z,5.84
2019-04-29T00:45:45.760Z,5.89
2019-04-29T00:46:45.752Z,5.97
2019-04-29T00:47:45.746Z,5.84
2019-04-29T00:48:45.740Z,5.98
2019-04-29T00:49:45.732Z,5.91
2019-04-29T00:50:45.726Z,5.86
2019-04-29T00:51:45.722Z,5.82
2019-04-29T00:52:45.714Z,5.87
2019-04-29T00:53:45.715Z,5.89
2019-04-29T00:54:45.700Z,5.82
2019-04-29T00:55:45.695Z,5.83
2019-04-29T00:56:45.689Z,5.86
2019-04-29T00:57:45.684Z,5.86
2019-04-29T00:58:45.677Z,5.83
2019-04-29T00:59:45.669Z,5.83
2019-04-29T01:00:45.664Z,5.83
2019-04-29T01:01:45.655Z,5.73
2019-04-29T01:02:45.651Z,5.76
2019-04-29T01:03:45.644Z,5.75
2019-04-29T01:04:45.636Z,5.73
2019-04-29T01:05:45.630Z,5.71
2019-04-29T01:06:45.625Z,5.75
2019-04-29T01:07:45.616Z,5.80
2019-04-29T01:08:45.610Z,5.76
2019-04-29T01:09:45.605Z,5.68
2019-04-29T01:10:45.598Z,5.75
2019-04-29T01:11:45.590Z,5.68
2019-04-29T01:12:45.585Z,5.75
2019-04-29T01:13:45.578Z,5.71
2019-04-29T01:14:45.572Z,5.76
2019-04-29T01:15:45.565Z,5.64
2019-04-29T01:16:45.557Z,5.68
2019-04-29T01:17:45.551Z,5.61
2019-04-29T01:18:45.546Z,5.62
2019-04-29T01:19:45.540Z,5.59
2019-04-29T01:20:45.532Z,5.66
2019-04-29T01:21:45.526Z,5.64
2019-04-29T01:22:45.518Z,5.64
2019-04-29T01:23:45.512Z,5.68
2019-04-29T01:24:45.509Z,5.65
2019-04-29T01:25:45.501Z,5.71
2019-04-29T01:26:45.492Z,5.68
2019-04-29T01:27:45.492Z,5.73
2019-04-29T01:28:45.478Z,5.71
2019-04-29T01:29:45.473Z,5.64
2019-04-29T01:30:45.467Z,5.64
2019-04-29T01:31:45.461Z,5.54
2019-04-29T01:32:45.453Z,5.56
2019-04-29T01:33:45.447Z,5.59
2019-04-29T01:34:45.446Z,5.54
2019-04-29T01:35:45.437Z,5.50
2019-04-29T01:36:45.429Z,5.56
2019-04-29T01:37:45.419Z,5.54
2019-04-29T01:38:48.463Z,5.54
2019-04-29T01:39:45.414Z,5.61
2019-04-29T01:40:45.401Z,5.61
2019-04-29T01:41:45.395Z,5.54
2019-04-29T01:42:45.389Z,5.46
2019-04-29T01:43:45.381Z,5.48
2019-04-29T01:44:45.374Z,5.44
2019-04-29T01:45:45.368Z,5.38
2019-04-29T01:46:45.361Z,5.39
2019-04-29T01:47:45.355Z,5.39
2019-04-29T01:48:45.347Z,5.38
2019-04-29T01:49:45.339Z,5.36
2019-04-29T01:50:45.334Z,5.36
2019-04-29T01:51:45.329Z,5.36
2019-04-29T01:52:45.320Z,5.47
2019-04-29T01:53:45.314Z,5.39
2019-04-29T01:54:45.309Z,5.41
2019-04-29T01:55:45.301Z,5.44
2019-04-29T01:56:45.293Z,5.39
2019-04-29T01:57:45.291Z,5.36
2019-04-29T01:58:45.279Z,5.36
2019-04-29T01:59:45.275Z,5.41
2019-04-29T02:00:45.276Z,5.54
2019-04-29T02:01:45.260Z,5.46
2019-04-29T02:02:45.254Z,5.44
2019-04-29T02:03:45.250Z,5.48
2019-04-29T02:04:45.238Z,5.51
2019-04-29T02:05:45.234Z,5.51
2019-04-29T02:06:45.226Z,5.50
2019-04-29T02:07:45.220Z,5.53
2019-04-29T02:08:45.215Z,5.48
2019-04-29T02:09:45.206Z,5.56
2019-04-29T02:10:45.198Z,5.44
2019-04-29T02:11:45.193Z,5.46
2019-04-29T02:12:45.186Z,5.43
2019-04-29T02:13:45.180Z,5.44
2019-04-29T02:14:45.173Z,5.38
2019-04-29T02:15:45.166Z,5.41
2019-04-29T02:16:45.160Z,5.39
2019-04-29T02:17:45.156Z,5.32
2019-04-29T02:18:45.146Z,5.36
2019-04-29T02:19:45.139Z,5.35
2019-04-29T02:20:45.131Z,5.36
2019-04-29T02:21:45.124Z,5.35
2019-04-29T02:22:45.125Z,5.36
2019-04-29T02:23:45.113Z,5.39
2019-04-29T02:24:45.131Z,5.38
2019-04-29T02:25:45.097Z,5.38
2019-04-29T02:26:45.091Z,5.50
2019-04-29T02:27:45.085Z,5.35
2019-04-29T02:28:45.078Z,5.38
2019-04-29T02:29:45.071Z,5.38
2019-04-29T02:30:45.067Z,5.39
2019-04-29T02:31:45.060Z,5.38
2019-04-29T02:32:45.052Z,5.39
2019-04-29T02:33:45.045Z,5.36
2019-04-29T02:34:45.039Z,5.43
2019-04-29T02:35:45.040Z,5.38
2019-04-29T02:36:45.025Z,5.30
2019-04-29T02:37:45.017Z,5.26
2019-04-29T02:38:45.012Z,5.28
2019-04-29T02:39:45.004Z,5.25
2019-04-29T02:40:44.995Z,5.20
2019-04-29T02:41:44.993Z,5.20
2019-04-29T02:42:44.983Z,5.23
2019-04-29T02:43:44.981Z,5.17
2019-04-29T02:44:44.969Z,5.14
2019-04-29T02:45:44.963Z,5.20
2019-04-29T02:46:44.957Z,5.18
2019-04-29T02:47:44.949Z,5.12
2019-04-29T02:48:44.942Z,5.15
2019-04-29T02:49:44.934Z,5.17
2019-04-29T02:50:44.930Z,5.18
2019-04-29T02:51:44.928Z,5.28
2019-04-29T02:52:44.913Z,5.26
2019-04-29T02:53:44.914Z,5.26
2019-04-29T02:54:44.902Z,5.26
2019-04-29T02:55:44.896Z,5.29
2019-04-29T02:56:44.889Z,5.36
2019-04-29T02:57:44.987Z,5.32
2019-04-29T02:58:44.875Z,5.26
2019-04-29T02:59:44.870Z,5.18
2019-04-29T03:00:44.865Z,5.14
2019-04-29T03:01:44.853Z,5.14
2019-04-29T03:02:44.850Z,5.10
2019-04-29T03:03:44.841Z,5.07
2019-04-29T03:04:44.837Z,5.15
2019-04-29T03:05:44.827Z,5.18
2019-04-29T03:06:44.819Z,5.20
2019-04-29T03:07:44.813Z,5.17
2019-04-29T03:08:44.804Z,5.28
2019-04-29T03:09:44.799Z,5.30
2019-04-29T03:10:44.793Z,5.32
2019-04-29T03:11:44.785Z,5.39
2019-04-29T03:12:44.778Z,5.38
2019-04-29T03:13:44.770Z,5.32
2019-04-29T03:14:44.765Z,5.39
2019-04-29T03:15:44.760Z,5.39
2019-04-29T03:16:44.757Z,5.43
2019-04-29T03:17:44.745Z,5.48
2019-04-29T03:18:44.741Z,5.48
2019-04-29T03:19:44.732Z,5.44
2019-04-29T03:20:44.741Z,5.47
2019-04-29T03:21:44.716Z,5.38
2019-04-29T03:22:44.711Z,5.43
2019-04-29T03:23:44.703Z,5.39
2019-04-29T03:24:44.697Z,5.39
2019-04-29T03:25:44.688Z,5.38
2019-04-29T03:26:44.683Z,5.41
2019-04-29T03:27:44.676Z,5.38
2019-04-29T03:28:44.668Z,5.33
2019-04-29T03:29:44.662Z,5.35
2019-04-29T03:30:44.658Z,5.33
2019-04-29T03:31:44.651Z,5.26
2019-04-29T03:32:44.642Z,5.36
2019-04-29T03:33:44.634Z,5.32
2019-04-29T03:34:44.633Z,5.36
2019-04-29T03:35:44.622Z,5.32
2019-04-29T03:36:44.616Z,5.36
2019-04-29T03:37:44.611Z,5.33
2019-04-29T03:38:44.599Z,5.38
2019-04-29T03:39:44.593Z,5.36
2019-04-29T03:40:44.587Z,5.29
2019-04-29T03:41:44.578Z,5.17
2019-04-29T03:42:44.574Z,5.25
2019-04-29T03:43:44.567Z,5.30
2019-04-29T03:44:44.559Z,5.28
2019-04-29T03:45:44.553Z,5.33
2019-04-29T03:46:44.545Z,5.29
2019-04-29T03:47:44.538Z,5.30
2019-04-29T03:48:44.532Z,5.36
2019-04-29T03:49:44.524Z,5.43
2019-04-29T03:50:44.521Z,5.36
2019-04-29T03:51:44.516Z,5.33
2019-04-29T03:52:44.507Z,5.33
2019-04-29T03:53:44.497Z,5.33
2019-04-29T03:54:44.491Z,5.36
2019-04-29T03:55:44.499Z,5.30
2019-04-29T03:56:44.477Z,5.26
2019-04-29T03:57:44.470Z,5.26
2019-04-29T03:58:44.465Z,5.18
2019-04-29T03:59:44.465Z,5.14
2019-04-29T04:00:44.590Z,5.18
2019-04-29T04:01:44.444Z,5.21
2019-04-29T04:02:44.439Z,5.20
2019-04-29T04:03:44.445Z,5.12
2019-04-29T04:04:44.423Z,5.12
2019-04-29T04:05:44.416Z,5.10
2019-04-29T04:06:44.410Z,5.15
2019-04-29T04:07:44.405Z,5.08
2019-04-29T04:08:44.396Z,5.14
2019-04-29T04:09:44.390Z,5.15
2019-04-29T04:10:44.383Z,5.17
2019-04-29T04:11:44.379Z,5.17
2019-04-29T04:12:44.369Z,5.17
2019-04-29T04:13:44.362Z,5.11
2019-04-29T04:14:44.356Z,5.10
2019-04-29T04:15:44.348Z,5.05
2019-04-29T04:16:44.341Z,5.02
2019-04-29T04:17:44.335Z,5.08
2019-04-29T04:18:44.328Z,5.12
2019-04-29T04:19:44.322Z,5.10
2019-04-29T04:20:44.313Z,5.08
2019-04-29T04:21:44.306Z,5.12
2019-04-29T04:22:44.301Z,5.14
2019-04-29T04:23:44.293Z,5.12
2019-04-29T04:24:44.287Z,5.08
2019-04-29T04:25:44.280Z,5.17
2019-04-29T04:26:44.274Z,5.12
2019-04-29T04:27:44.274Z,5.10
2019-04-29T04:28:44.261Z,5.14
2019-04-29T04:29:44.251Z,5.14
2019-04-29T04:30:44.247Z,5.18
2019-04-29T04:31:44.239Z,5.18
2019-04-29T04:32:44.233Z,5.15
2019-04-29T04:33:44.225Z,5.18
2019-04-29T04:34:44.344Z,5.20
2019-04-29T04:35:44.209Z,5.20
2019-04-29T04:36:44.204Z,5.21
2019-04-29T04:37:44.198Z,5.25
2019-04-29T04:38:44.191Z,5.32
2019-04-29T04:39:44.187Z,5.29
2019-04-29T04:40:44.177Z,5.30
2019-04-29T04:41:44.171Z,5.33
2019-04-29T04:42:44.164Z,5.36
2019-04-29T04:43:44.162Z,5.36
2019-04-29T04:44:44.181Z,5.33
2019-04-29T04:45:44.144Z,5.28
2019-04-29T04:46:44.147Z,5.28
2019-04-29T04:47:44.138Z,5.29
2019-04-29T04:48:44.122Z,5.32
2019-04-29T04:49:44.131Z,5.28
2019-04-29T04:50:44.109Z,5.26
2019-04-29T04:51:44.102Z,5.28
2019-04-29T04:52:44.094Z,5.36
2019-04-29T04:53:44.093Z,5.35
2019-04-29T04:54:44.081Z,5.33
2019-04-29T04:55:44.074Z,5.39
2019-04-29T04:56:44.067Z,5.36
2019-04-29T04:57:44.059Z,5.36
2019-04-29T04:58:44.053Z,5.36
2019-04-29T04:59:44.052Z,5.44
2019-04-29T05:00:44.039Z,5.46
2019-04-29T05:01:44.035Z,5.53
2019-04-29T05:02:44.028Z,5.54
2019-04-29T05:03:44.023Z,5.56
2019-04-29T05:04:44.013Z,5.64
2019-04-29T05:05:44.007Z,5.71
2019-04-29T05:06:44.001Z,5.75
2019-04-29T05:07:43.999Z,5.80
2019-04-29T05:08:43.986Z,5.79
2019-04-29T05:09:43.981Z,5.75
2019-04-29T05:10:43.975Z,5.64
2019-04-29T05:11:43.967Z,5.75
2019-04-29T05:12:43.961Z,5.68
2019-04-29T05:13:43.954Z,5.65
2019-04-29T05:14:43.947Z,5.71
2019-04-29T05:15:43.940Z,5.68
2019-04-29T05:16:43.933Z,5.76
2019-04-29T05:17:43.928Z,5.71
2019-04-29T05:18:43.921Z,5.65
2019-04-29T05:19:43.952Z,5.73
2019-04-29T05:20:43.907Z,5.83
2019-04-29T05:21:43.901Z,5.86
2019-04-29T05:22:43.899Z,5.91
2019-04-29T05:23:43.889Z,5.84
2019-04-29T05:24:43.880Z,6.02
2019-04-29T05:25:43.881Z,5.93
2019-04-29T05:26:43.867Z,6.04
2019-04-29T05:27:43.864Z,6.14
2019-04-29T05:28:43.855Z,6.12
2019-04-29T05:29:43.849Z,6.31
2019-04-29T05:30:43.846Z,6.19
2019-04-29T05:31:43.840Z,6.26
2019-04-29T05:32:43.834Z,6.36
2019-04-29T05:33:43.823Z,6.39
2019-04-29T05:34:46.461Z,6.39
2019-04-29T05:35:43.811Z,6.45
2019-04-29T05:36:43.807Z,6.41
2019-04-29T05:37:43.797Z,6.45
2019-04-29T05:38:43.792Z,6.48
2019-04-29T05:39:43.790Z,6.48
2019-04-29T05:40:43.780Z,6.57
2019-04-29T05:41:43.772Z,6.63
2019-04-29T05:42:43.768Z,6.57
2019-04-29T05:43:43.762Z,6.63
2019-04-29T05:44:43.754Z,6.70
2019-04-29T05:45:46.235Z,6.74
2019-04-29T05:46:43.772Z,6.72
2019-04-29T05:47:43.736Z,6.77
2019-04-29T05:48:43.729Z,6.85
2019-04-29T05:49:43.726Z,6.85
2019-04-29T05:50:47.483Z,6.95
2019-04-29T05:51:43.711Z,6.92
2019-04-29T05:52:43.705Z,7.06
2019-04-29T05:53:47.297Z,7.18
2019-04-29T05:54:43.691Z,7.18
2019-04-29T05:55:43.689Z,7.25
2019-04-29T05:56:43.680Z,7.29
2019-04-29T05:57:43.675Z,7.38
2019-04-29T05:58:43.668Z,7.43
2019-04-29T05:59:47.693Z,7.58
2019-04-29T06:00:43.656Z,7.72
2019-04-29T06:01:47.143Z,7.70
2019-04-29T06:02:43.646Z,7.80
2019-04-29T06:03:44.526Z,7.93
2019-04-29T06:04:43.633Z,7.95
2019-04-29T06:05:43.630Z,8.01
2019-04-29T06:06:43.623Z,8.23
2019-04-29T06:07:43.616Z,8.24
2019-04-29T06:08:43.610Z,8.36
2019-04-29T06:09:43.605Z,8.31
2019-04-29T06:10:43.613Z,8.30
2019-04-29T06:11:43.596Z,8.42
2019-04-29T06:12:44.558Z,8.45
2019-04-29T06:13:43.582Z,8.56
2019-04-29T06:14:43.578Z,8.70
2019-04-29T06:15:44.989Z,8.67
2019-04-29T06:16:43.566Z,8.79
2019-04-29T06:17:44.895Z,8.82
2019-04-29T06:19:43.549Z,9.10
2019-04-29T06:21:07.850Z,9.06
2019-04-29T06:21:43.538Z,9.21
2019-04-29T06:22:43.624Z,9.32
2019-04-29T06:23:43.527Z,9.32
2019-04-29T06:24:43.524Z,9.32
2019-04-29T06:25:43.516Z,9.43
2019-04-29T06:26:43.679Z,9.44
2019-04-29T06:27:43.509Z,9.54
2019-04-29T06:28:43.501Z,9.58
2019-04-29T06:29:43.496Z,9.68
2019-04-29T06:31:31.821Z,9.64
2019-04-29T06:32:31.816Z,9.68
2019-04-29T06:33:31.810Z,9.65
2019-04-29T06:34:35.398Z,9.64
2019-04-29T06:35:31.800Z,9.76
2019-04-29T06:36:31.794Z,9.83
2019-04-29T06:37:31.792Z,9.83
2019-04-29T06:38:31.787Z,9.87
2019-04-29T06:39:31.780Z,9.95
2019-04-29T06:40:35.294Z,10.20
2019-04-29T06:41:31.770Z,10.28
2019-04-29T06:42:33.420Z,10.28
2019-04-29T06:43:31.761Z,10.25
2019-04-29T06:44:31.756Z,10.35
2019-04-29T06:45:31.754Z,10.31
2019-04-29T06:46:31.747Z,10.28
2019-04-29T06:47:31.741Z,10.34
2019-04-29T06:48:31.741Z,10.30
2019-04-29T06:49:31.731Z,10.35
2019-04-29T06:50:31.726Z,10.41
2019-04-29T06:51:31.720Z,10.42
2019-04-29T06:52:31.718Z,10.48
2019-04-29T06:53:31.711Z,10.51
2019-04-29T06:54:31.707Z,10.67
2019-04-29T06:55:31.703Z,10.63
2019-04-29T06:56:31.699Z,10.59
2019-04-29T06:57:31.692Z,10.71
2019-04-29T06:58:32.456Z,10.61
2019-04-29T06:59:31.694Z,10.63
2019-04-29T07:00:31.679Z,10.69
2019-04-29T07:01:33.117Z,10.63
2019-04-29T07:02:31.670Z,10.63
2019-04-29T07:03:31.667Z,10.63
2019-04-29T07:04:38.461Z,10.68
2019-04-29T07:05:31.658Z,10.61
2019-04-29T07:06:31.652Z,10.75
2019-04-29T07:07:31.648Z,10.87
2019-04-29T07:08:31.641Z,11.02
2019-04-29T07:09:31.638Z,10.96
2019-04-29T07:10:31.635Z,11.07
2019-04-29T07:11:31.764Z,10.96
2019-04-29T07:12:31.625Z,11.05
2019-04-29T07:13:31.620Z,11.15
2019-04-29T07:14:33.316Z,11.07
2019-04-29T07:15:31.617Z,11.19
2019-04-29T07:16:32.088Z,11.25
2019-04-29T07:17:31.601Z,11.25
2019-04-29T07:18:31.598Z,11.36
2019-04-29T07:19:31.592Z,11.44
2019-04-29T07:20:32.483Z,11.50
2019-04-29T07:21:31.584Z,11.47
2019-04-29T07:22:31.581Z,11.62
2019-04-29T07:23:31.575Z,11.51
2019-04-29T07:24:31.574Z,11.57
2019-04-29T07:25:31.568Z,11.66
2019-04-29T07:26:31.564Z,11.68
2019-04-29T07:27:34.870Z,11.70
2019-04-29T07:28:31.553Z,11.66
2019-04-29T07:29:32.698Z,11.57
2019-04-29T07:30:31.548Z,11.68
2019-04-29T07:31:33.236Z,11.83
2019-04-29T07:32:32.487Z,11.84
2019-04-29T07:33:31.536Z,11.99
2019-04-29T07:34:33.795Z,12.10
2019-04-29T07:35:31.527Z,12.17
2019-04-29T07:36:31.521Z,12.29
2019-04-29T07:37:34.063Z,12.28
2019-04-29T07:38:41.134Z,12.18
2019-04-29T07:39:33.159Z,12.12
2019-04-29T07:40:31.508Z,12.40
2019-04-29T07:41:31.502Z,12.39
2019-04-29T07:42:33.213Z,12.42
2019-04-29T07:43:31.494Z,12.42
2019-04-29T07:44:43.314Z,12.36
2019-04-29T07:45:43.670Z,12.46
2019-04-29T07:46:36.428Z,12.60
2019-04-29T07:47:31.483Z,12.78
2019-04-29T07:48:31.479Z,12.73
2019-04-29T07:49:31.473Z,12.82
2019-04-29T07:50:31.470Z,13.01
2019-04-29T07:51:34.752Z,13.08
2019-04-29T07:52:31.462Z,13.00
2019-04-29T07:53:40.130Z,12.94
2019-04-29T07:54:31.459Z,13.19
2019-04-29T07:55:32.577Z,13.13
2019-04-29T07:56:31.451Z,13.41
2019-04-29T07:57:31.448Z,13.22
2019-04-29T07:58:31.446Z,13.25
2019-04-29T07:59:33.759Z,13.39
2019-04-29T08:00:31.439Z,13.62
2019-04-29T08:01:31.439Z,13.75
2019-04-29T08:02:31.434Z,13.99
2019-04-29T08:03:31.433Z,14.10
2019-04-29T08:04:31.434Z,14.14
2019-04-29T08:05:31.429Z,14.41
2019-04-29T08:06:31.425Z,14.53
2019-04-29T08:07:31.425Z,14.73
2019-04-29T08:08:31.427Z,14.81
2019-04-29T08:09:31.422Z,15.37
2019-04-29T08:10:31.422Z,15.72
2019-04-29T08:11:31.423Z,16.43
2019-04-29T08:13:31.423Z,16.87
2019-04-29T08:14:31.424Z,17.42
2019-04-29T08:15:32.052Z,17.42
2019-04-29T08:16:31.425Z,17.31
2019-04-29T08:17:31.427Z,16.90
2019-04-29T08:18:31.429Z,17.57
2019-04-29T08:19:31.636Z,17.15
2019-04-29T08:20:31.436Z,17.64
2019-04-29T08:21:31.439Z,17.83
2019-04-29T08:22:31.444Z,17.94
2019-04-29T08:23:32.583Z,17.34
2019-04-29T08:24:31.451Z,17.74
2019-04-29T08:25:31.456Z,18.07
2019-04-29T08:26:33.571Z,18.01
2019-04-29T08:27:39.801Z,17.78
2019-04-29T08:28:31.470Z,17.92
2019-04-29T08:29:35.708Z,18.18
2019-04-29T08:30:31.482Z,18.07
2019-04-29T08:31:31.487Z,18.18
2019-04-29T08:32:31.598Z,18.33
2019-04-29T08:33:31.500Z,17.67
2019-04-29T08:34:31.507Z,17.22
2019-04-29T08:35:32.680Z,16.89
2019-04-29T08:36:31.519Z,17.26
2019-04-29T08:37:31.527Z,17.27
2019-04-29T08:38:31.536Z,17.57
2019-04-29T08:39:31.541Z,17.45
2019-04-29T08:40:34.155Z,17.24
2019-04-29T08:41:31.557Z,17.67
2019-04-29T08:42:31.563Z,18.07
2019-04-29T08:43:31.570Z,18.92
2019-04-29T08:44:31.577Z,18.84
2019-04-29T08:45:34.677Z,18.86
2019-04-29T08:46:31.592Z,19.08
2019-04-29T08:47:31.815Z,18.86
2019-04-29T08:48:31.609Z,18.47
2019-04-29T08:49:31.617Z,19.11
2019-04-29T08:50:31.625Z,19.02
2019-04-29T08:51:31.632Z,18.99
2019-04-29T08:52:31.641Z,18.84
2019-04-29T08:53:31.651Z,18.68
2019-04-29T08:54:31.659Z,19.26
2019-04-29T08:55:36.017Z,19.22
2019-04-29T08:56:31.674Z,18.28
2019-04-29T08:57:35.934Z,18.22
2019-04-29T08:58:31.691Z,18.22
2019-04-29T08:59:31.700Z,18.40
2019-04-29T09:00:31.710Z,18.38
2019-04-29T09:01:33.944Z,18.22
2019-04-29T09:02:35.056Z,18.45
2019-04-29T09:03:40.222Z,18.84
2019-04-29T09:04:33.259Z,18.98
2019-04-29T09:05:31.754Z,18.25
2019-04-29T09:06:32.643Z,17.42
2019-04-29T09:07:31.774Z,17.86
2019-04-29T09:08:32.927Z,17.85
2019-04-29T09:09:31.797Z,17.60
2019-04-29T09:10:32.953Z,17.89
2019-04-29T09:11:31.806Z,18.04
2019-04-29T09:12:31.816Z,17.67
2019-04-29T09:13:31.825Z,18.08
2019-04-29T09:14:31.835Z,17.78
2019-04-29T09:15:31.842Z,17.52
2019-04-29T09:16:31.850Z,17.80
2019-04-29T09:17:31.861Z,17.65
2019-04-29T09:18:31.868Z,17.36
2019-04-29T09:19:31.876Z,17.05
2019-04-29T09:20:31.887Z,17.49
2019-04-29T09:21:31.895Z,17.64
2019-04-29T09:22:31.905Z,18.00
2019-04-29T09:23:31.910Z,18.89
2019-04-29T09:24:31.919Z,19.27
2019-04-29T09:25:31.927Z,18.66
2019-04-29T09:26:31.935Z,18.19
2019-04-29T09:27:31.945Z,18.07
2019-04-29T09:28:31.953Z,18.10
2019-04-29T09:29:31.962Z,18.58
2019-04-29T09:30:31.971Z,18.58
2019-04-29T09:31:31.977Z,18.90
2019-04-29T09:32:33.989Z,19.39
2019-04-29T09:33:31.994Z,19.66
2019-04-29T09:34:32.005Z,20.00
2019-04-29T09:35:33.760Z,20.87
2019-04-29T09:36:32.022Z,20.16
2019-04-29T09:37:32.031Z,18.93
2019-04-29T09:38:32.573Z,18.92
2019-04-29T09:39:42.379Z,18.56
2019-04-29T09:40:32.055Z,18.10
2019-04-29T09:41:35.102Z,18.07
2019-04-29T09:42:32.074Z,18.96
2019-04-29T09:43:32.950Z,19.48
2019-04-29T09:44:35.173Z,18.60
2019-04-29T09:45:32.103Z,19.08
2019-04-29T09:46:34.487Z,18.41
2019-04-29T09:47:32.119Z,18.19
2019-04-29T09:48:32.126Z,17.83
2019-04-29T09:49:32.133Z,17.64
2019-04-29T09:50:34.162Z,17.46
2019-04-29T09:51:32.150Z,17.44
2019-04-29T09:52:32.164Z,16.97
2019-04-29T09:53:32.167Z,17.05
2019-04-29T09:54:32.177Z,17.65
2019-04-29T09:55:35.691Z,16.72
2019-04-29T09:56:34.548Z,17.15
2019-04-29T09:57:32.198Z,17.20
2019-04-29T09:58:32.203Z,17.04
2019-04-29T09:59:32.211Z,16.31
2019-04-29T10:00:32.216Z,15.86
2019-04-29T10:01:32.225Z,16.08
2019-04-29T10:02:33.160Z,16.43
2019-04-29T10:03:32.236Z,16.31
2019-04-29T10:04:32.243Z,16.29
2019-04-29T10:05:32.249Z,16.09
2019-04-29T10:06:32.256Z,16.16
2019-04-29T10:07:32.262Z,16.56
2019-04-29T10:08:32.266Z,16.83
2019-04-29T10:09:32.275Z,17.09
2019-04-29T10:10:32.278Z,17.36
2019-04-29T10:11:32.284Z,17.41
2019-04-29T10:12:32.287Z,17.68
2019-04-29T10:13:32.293Z,17.63
2019-04-29T10:14:32.298Z,17.82
2019-04-29T10:15:32.302Z,17.83
2019-04-29T10:16:35.868Z,17.87
2019-04-29T10:17:32.310Z,17.72
2019-04-29T10:18:32.315Z,16.99
2019-04-29T10:19:32.320Z,16.41
2019-04-29T10:20:32.323Z,16.53
2019-04-29T10:21:32.334Z,16.41
2019-04-29T10:22:32.337Z,16.26
2019-04-29T10:23:32.337Z,16.16
2019-04-29T10:24:32.341Z,16.13
2019-04-29T10:25:32.347Z,16.13
2019-04-29T10:26:32.349Z,16.51
2019-04-29T10:27:32.352Z,16.68
2019-04-29T10:28:32.355Z,16.66
2019-04-29T10:29:32.361Z,16.87
2019-04-29T10:30:32.535Z,17.08
2019-04-29T10:31:32.367Z,17.04
2019-04-29T10:32:32.371Z,17.20
2019-04-29T10:33:32.373Z,16.81
2019-04-29T10:34:33.074Z,16.91
2019-04-29T10:35:32.380Z,16.81
2019-04-29T10:36:32.385Z,16.74
2019-04-29T10:37:32.727Z,16.66
2019-04-29T10:38:32.394Z,16.56
2019-04-29T10:39:32.396Z,16.69
2019-04-29T10:40:32.398Z,17.02
2019-04-29T10:41:36.115Z,17.08
2019-04-29T10:42:32.405Z,17.26
2019-04-29T10:43:35.556Z,17.29
2019-04-29T10:44:32.410Z,16.64
2019-04-29T10:45:32.416Z,16.51
2019-04-29T10:46:32.420Z,16.35
2019-04-29T10:47:32.422Z,16.05
2019-04-29T10:48:32.424Z,16.13
2019-04-29T10:49:34.841Z,16.64
2019-04-29T10:50:32.434Z,16.50
2019-04-29T10:51:32.433Z,17.04
2019-04-29T10:52:34.559Z,16.87
2019-04-29T10:53:32.438Z,16.83
2019-04-29T10:54:32.443Z,16.89
2019-04-29T10:55:32.444Z,16.93
2019-04-29T10:56:35.309Z,16.99
2019-04-29T10:57:32.451Z,17.09
2019-04-29T10:58:35.636Z,17.27
2019-04-29T10:59:35.939Z,17.56
2019-04-29T11:00:32.463Z,17.36
2019-04-29T11:01:32.463Z,17.02
2019-04-29T11:02:32.465Z,17.11
2019-04-29T11:03:32.467Z,17.05
2019-04-29T11:04:36.099Z,16.86
2019-04-29T11:05:32.473Z,16.87
2019-04-29T11:06:35.897Z,16.94
2019-04-29T11:07:32.478Z,17.16
2019-04-29T11:08:33.740Z,16.86
2019-04-29T11:09:32.485Z,16.74
2019-04-29T11:10:32.489Z,16.43
2019-04-29T11:11:32.491Z,16.46
2019-04-29T11:12:32.498Z,16.76
2019-04-29T11:13:32.498Z,16.74
2019-04-29T11:14:33.180Z,16.91
2019-04-29T11:15:32.792Z,17.04
2019-04-29T11:16:46.132Z,17.23
2019-04-29T11:17:34.853Z,17.48
2019-04-29T11:18:32.510Z,17.20
2019-04-29T11:19:35.101Z,17.08
2019-04-29T11:20:32.516Z,17.02
2019-04-29T11:21:32.520Z,16.99
2019-04-29T11:22:33.873Z,17.02
2019-04-29T11:23:32.523Z,17.02
2019-04-29T11:24:32.566Z,17.31
2019-04-29T11:25:32.529Z,16.86
2019-04-29T11:26:32.532Z,17.05
2019-04-29T11:27:32.534Z,17.26
2019-04-29T11:28:32.536Z,17.12
2019-04-29T11:29:35.556Z,16.57
2019-04-29T11:30:34.891Z,16.50
2019-04-29T11:31:32.608Z,16.32
2019-04-29T11:32:32.546Z,16.79
2019-04-29T11:33:35.603Z,17.08
2019-04-29T11:34:33.402Z,17.16
2019-04-29T11:35:35.566Z,17.22
2019-04-29T11:36:35.045Z,16.49
2019-04-29T11:37:32.558Z,16.46
2019-04-29T11:38:33.466Z,16.47
2019-04-29T11:39:32.560Z,16.66
2019-04-29T11:40:43.092Z,17.04
2019-04-29T11:41:32.568Z,17.19
2019-04-29T11:42:36.437Z,17.22
2019-04-29T11:43:32.572Z,17.08
2019-04-29T11:44:32.576Z,17.19
2019-04-29T11:45:33.921Z,16.81
2019-04-29T11:46:32.577Z,16.87
2019-04-29T11:47:32.579Z,17.05
2019-04-29T11:48:32.581Z,17.06
2019-04-29T11:49:32.584Z,16.99
2019-04-29T11:50:32.587Z,16.58
2019-04-29T11:51:34.079Z,16.51
2019-04-29T11:52:32.611Z,16.56
2019-04-29T11:53:32.591Z,16.74
2019-04-29T11:54:32.594Z,17.04
2019-04-29T11:55:32.597Z,16.96
2019-04-29T11:56:32.598Z,16.99
2019-04-29T11:57:40.744Z,16.79
2019-04-29T11:58:32.602Z,16.61
2019-04-29T11:59:32.618Z,16.60
2019-04-29T12:00:32.605Z,16.58
2019-04-29T12:01:39.250Z,16.49
2019-04-29T12:02:45.474Z,16.54
2019-04-29T12:03:32.611Z,16.76
2019-04-29T12:04:33.392Z,16.75
2019-04-29T12:05:32.613Z,16.75
2019-04-29T12:06:32.616Z,16.65
2019-04-29T12:07:34.045Z,16.29
2019-04-29T12:08:32.618Z,16.13
2019-04-29T12:09:32.620Z,16.24
2019-04-29T12:10:32.620Z,16.04
2019-04-29T12:11:35.766Z,16.28
2019-04-29T12:12:32.623Z,16.64
2019-04-29T12:13:32.625Z,16.69
2019-04-29T12:14:33.757Z,16.72
2019-04-29T12:15:32.628Z,16.86
2019-04-29T12:16:32.629Z,16.86
2019-04-29T12:17:32.632Z,16.72
2019-04-29T12:18:33.974Z,16.65
2019-04-29T12:19:32.633Z,16.68
2019-04-29T12:20:32.635Z,16.71
2019-04-29T12:21:32.638Z,16.78
2019-04-29T12:22:32.638Z,16.94
2019-04-29T12:23:32.638Z,16.99
2019-04-29T12:24:32.642Z,16.97
2019-04-29T12:25:32.640Z,16.97
2019-04-29T12:26:35.003Z,16.71
2019-04-29T12:27:32.643Z,16.35
2019-04-29T12:28:32.644Z,16.51
2019-04-29T12:29:32.648Z,16.53
2019-04-29T12:30:34.803Z,16.60
2019-04-29T12:31:32.646Z,16.60
2019-04-29T12:32:32.647Z,16.42
2019-04-29T12:33:36.735Z,16.53
2019-04-29T12:34:32.652Z,16.54
2019-04-29T12:35:32.652Z,16.43
2019-04-29T12:36:36.665Z,16.60
2019-04-29T12:37:34.400Z,17.01
2019-04-29T12:38:44.579Z,17.22
2019-04-29T12:39:42.883Z,17.05
2019-04-29T12:40:32.665Z,17.05
2019-04-29T12:41:32.731Z,16.84
2019-04-29T12:42:35.801Z,16.83
2019-04-29T12:43:32.661Z,16.60
2019-04-29T12:44:35.283Z,16.36
2019-04-29T12:45:32.663Z,16.60
2019-04-29T12:46:32.663Z,16.50
2019-04-29T12:47:32.661Z,16.74
2019-04-29T12:48:32.662Z,16.78
2019-04-29T12:49:32.665Z,16.60
2019-04-29T12:50:32.665Z,16.72
2019-04-29T12:51:32.666Z,16.74
2019-04-29T12:52:32.700Z,16.66
2019-04-29T12:53:32.699Z,16.71
2019-04-29T12:54:32.667Z,16.74
2019-04-29T12:55:44.130Z,16.89
2019-04-29T12:56:32.669Z,16.74
2019-04-29T12:57:32.669Z,16.71
2019-04-29T12:58:32.670Z,16.86
2019-04-29T12:59:35.498Z,16.93
2019-04-29T13:00:46.320Z,17.01
2019-04-29T13:01:50.274Z,17.04
2019-04-29T13:02:32.673Z,17.09
2019-04-29T13:03:39.653Z,17.04
2019-04-29T13:04:32.673Z,17.31
2019-04-29T13:05:32.674Z,17.64
2019-04-29T13:06:39.145Z,17.42
2019-04-29T13:07:32.674Z,17.79
2019-04-29T13:08:32.675Z,17.67